createdAt,value
2019-03-21T00:01:18.135Z,72.02
2019-03-21T00:03:50.596Z,71.81
2019-03-21T00:06:21.094Z,71.89
2019-03-21T00:08:52.049Z,71.85
2019-03-21T00:11:55.023Z,71.99
2019-03-21T00:14:43.573Z,72.11
2019-03-21T00:17:22.999Z,72.29
2019-03-21T00:19:53.569Z,72.54
2019-03-21T00:22:24.422Z,72.64
2019-03-21T00:24:55.178Z,72.97
2019-03-21T00:27:26.242Z,73.07
2019-03-21T00:29:56.872Z,73.12
2019-03-21T00:32:27.625Z,73.19
2019-03-21T00:34:58.296Z,73.19
2019-03-21T00:37:29.135Z,73.26
2019-03-21T00:40:00.908Z,73.46
2019-03-21T00:42:31.478Z,73.63
2019-03-21T00:45:02.231Z,73.80
2019-03-21T00:47:32.987Z,73.87
2019-03-21T00:50:04.556Z,74.10
2019-03-21T00:52:36.129Z,74.06
2019-03-21T00:55:10.055Z,74.22
2019-03-21T00:57:40.500Z,74.35
2019-03-21T01:00:20.607Z,74.41
2019-03-21T01:02:51.916Z,74.42
2019-03-21T01:05:22.579Z,74.69
2019-03-21T01:07:53.435Z,74.92
2019-03-21T01:10:27.161Z,74.87
2019-03-21T01:12:58.066Z,74.93
2019-03-21T01:15:28.849Z,74.88
2019-03-21T01:17:59.725Z,74.89
2019-03-21T01:20:30.482Z,75.01
2019-03-21T01:23:01.419Z,74.90
2019-03-21T01:25:39.758Z,74.86
2019-03-21T01:28:10.600Z,74.69
2019-03-21T01:30:41.266Z,74.96
2019-03-21T01:33:12.124Z,74.76
2019-03-21T01:35:43.474Z,74.94
2019-03-21T01:38:13.940Z,74.89
2019-03-21T01:40:53.606Z,74.85
2019-03-21T01:43:24.448Z,74.97
2019-03-21T01:45:55.200Z,74.92
2019-03-21T01:48:26.262Z,75.13
2019-03-21T01:50:57.115Z,75.00
2019-03-21T01:53:27.869Z,75.20
2019-03-21T01:55:58.636Z,75.15
2019-03-21T01:58:29.478Z,75.32
2019-03-21T02:01:01.443Z,75.46
2019-03-21T02:03:32.198Z,75.32
2019-03-21T02:06:03.587Z,75.22
2019-03-21T02:08:34.418Z,75.20
2019-03-21T02:11:05.295Z,75.32
2019-03-21T02:13:35.945Z,75.45
2019-03-21T02:16:07.928Z,75.75
2019-03-21T02:18:38.477Z,75.68
2019-03-21T02:21:09.333Z,75.88
2019-03-21T02:23:40.088Z,75.94
2019-03-21T02:26:11.352Z,76.34
2019-03-21T02:28:42.208Z,76.33
2019-03-21T02:31:13.148Z,76.38
2019-03-21T02:36:16.724Z,76.86
2019-03-21T02:38:47.580Z,76.97
2019-03-21T02:41:18.335Z,77.03
2019-03-21T02:43:49.504Z,77.24
2019-03-21T02:46:20.352Z,77.42
2019-03-21T02:48:52.232Z,77.52
2019-03-21T02:51:24.420Z,77.64
2019-03-21T02:53:55.069Z,77.55
2019-03-21T02:56:26.743Z,77.74
2019-03-21T02:58:57.410Z,78.02
2019-03-21T03:01:29.259Z,78.30
2019-03-21T03:04:00.037Z,78.56
2019-03-21T03:06:31.507Z,78.91
2019-03-21T03:09:02.359Z,79.13
2019-03-21T03:11:33.094Z,79.23
2019-03-21T03:14:04.632Z,79.50
2019-03-21T03:16:35.329Z,79.76
2019-03-21T03:19:06.087Z,79.90
2019-03-21T03:21:36.840Z,80.10
2019-03-21T03:24:07.492Z,80.32
2019-03-21T03:26:38.450Z,80.38
2019-03-21T03:29:09.289Z,80.48
2019-03-21T03:31:40.042Z,80.51
2019-03-21T03:34:10.814Z,80.56
2019-03-21T03:36:41.670Z,80.57
2019-03-21T03:39:12.412Z,80.69
2019-03-21T03:41:43.381Z,80.90
2019-03-21T03:44:14.117Z,80.82
2019-03-21T03:46:44.769Z,81.23
2019-03-21T03:49:15.626Z,81.08
2019-03-21T03:51:46.397Z,81.02
2019-03-21T03:54:17.242Z,81.08
2019-03-21T03:56:48.109Z,81.09
2019-03-21T03:59:18.843Z,81.10
2019-03-21T04:01:50.661Z,81.11
2019-03-21T04:04:21.375Z,81.09
2019-03-21T04:06:52.131Z,81.11
2019-03-21T04:09:22.800Z,81.10
2019-03-21T04:11:53.638Z,80.80
2019-03-21T04:14:24.699Z,80.68
2019-03-21T04:16:54.663Z,80.76
2019-03-21T04:19:25.186Z,80.80
2019-03-21T04:21:55.154Z,80.76
2019-03-21T04:24:25.669Z,80.56
2019-03-21T04:26:56.643Z,80.39
2019-03-21T04:29:28.400Z,80.02
2019-03-21T04:31:59.382Z,79.54
2019-03-21T04:34:30.422Z,79.01
2019-03-21T04:37:01.191Z,78.35
2019-03-21T04:39:32.048Z,77.46
2019-03-21T04:42:03.109Z,76.67
2019-03-21T04:44:33.760Z,75.34
2019-03-21T04:47:05.025Z,74.68
2019-03-21T04:49:35.685Z,73.80
2019-03-21T04:52:05.735Z,73.46
2019-03-21T04:54:36.245Z,72.74
2019-03-21T04:57:06.916Z,71.72
2019-03-21T04:59:37.771Z,71.54
2019-03-21T05:02:09.433Z,71.19
2019-03-21T05:04:41.415Z,70.39
2019-03-21T05:07:11.855Z,70.49
2019-03-21T05:09:42.628Z,69.54
2019-03-21T05:12:13.383Z,68.92
2019-03-21T05:14:44.034Z,68.46
2019-03-21T05:17:15.489Z,67.78
2019-03-21T05:19:45.551Z,66.69
2019-03-21T05:22:16.074Z,66.63
2019-03-21T05:24:46.741Z,66.58
2019-03-21T05:27:17.598Z,66.43
2019-03-21T05:29:48.452Z,66.16
2019-03-21T05:32:20.232Z,65.95
2019-03-21T05:34:50.659Z,66.34
2019-03-21T05:37:21.433Z,64.96
2019-03-21T05:39:52.085Z,64.54
2019-03-21T05:42:23.144Z,63.76
2019-03-21T05:44:53.897Z,63.37
2019-03-21T05:47:24.531Z,62.20
2019-03-21T05:49:55.387Z,62.21
2019-03-21T05:52:26.245Z,62.42
2019-03-21T05:55:13.075Z,61.61
2019-03-21T05:57:45.360Z,60.66
2019-03-21T06:00:19.284Z,60.58
2019-03-21T06:02:51.061Z,60.28
2019-03-21T06:05:21.693Z,59.99
2019-03-21T06:08:01.668Z,58.20
2019-03-21T06:10:32.523Z,57.85
2019-03-21T06:13:03.156Z,58.12
2019-03-21T06:15:34.659Z,57.68
2019-03-21T06:18:38.330Z,57.11
2019-03-21T06:21:23.913Z,56.40
2019-03-21T06:24:16.147Z,54.97
2019-03-21T06:27:02.034Z,54.54
2019-03-21T06:29:32.790Z,54.42
2019-03-21T06:32:03.627Z,51.65
2019-03-21T06:34:34.500Z,50.56
2019-03-21T06:37:05.460Z,52.21
2019-03-21T06:39:36.218Z,50.99
2019-03-21T06:42:06.966Z,50.89
2019-03-21T06:44:37.825Z,50.01
2019-03-21T06:47:08.578Z,49.14
2019-03-21T06:49:39.232Z,49.29
2019-03-21T06:52:10.068Z,48.96
2019-03-21T06:54:40.839Z,47.85
2019-03-21T06:57:11.593Z,45.35
2019-03-21T06:59:42.246Z,46.56
2019-03-21T07:02:13.001Z,46.48
2019-03-21T07:04:44.775Z,46.77
2019-03-21T07:07:15.614Z,45.99
2019-03-21T07:09:46.390Z,43.96
2019-03-21T07:12:17.034Z,43.34
2019-03-21T07:14:53.618Z,41.79
2019-03-21T07:17:24.273Z,43.30
2019-03-21T07:19:55.024Z,43.07
2019-03-21T07:22:25.766Z,42.86
2019-03-21T07:24:56.327Z,42.30
2019-03-21T07:27:26.282Z,41.49
2019-03-21T07:29:56.812Z,41.65
2019-03-21T07:32:33.246Z,41.07
2019-03-21T07:34:59.648Z,40.04
2019-03-21T07:37:30.302Z,40.17
2019-03-21T07:40:01.057Z,40.43
2019-03-21T07:42:31.811Z,40.65
2019-03-21T07:45:02.463Z,41.09
2019-03-21T07:47:33.302Z,40.84
2019-03-21T07:50:04.686Z,39.57
2019-03-21T07:52:35.335Z,37.62
2019-03-21T07:55:07.565Z,37.15
2019-03-21T07:57:37.975Z,38.65
2019-03-21T08:00:18.955Z,35.40
2019-03-21T08:02:49.489Z,35.86
2019-03-21T08:05:21.178Z,35.70
2019-03-21T08:07:51.929Z,35.83
2019-03-21T08:10:22.584Z,36.28
2019-03-21T08:12:53.419Z,36.18
2019-03-21T08:15:24.171Z,36.22
2019-03-21T08:17:56.461Z,36.47
2019-03-21T08:20:27.136Z,36.21
2019-03-21T08:22:57.990Z,36.90
2019-03-21T08:25:28.845Z,36.78
2019-03-21T08:27:59.596Z,36.44
2019-03-21T08:30:33.112Z,35.92
2019-03-21T08:33:04.071Z,35.83
2019-03-21T08:35:34.809Z,36.59
2019-03-21T08:38:05.579Z,36.67
2019-03-21T08:40:36.228Z,36.33
2019-03-21T08:43:07.086Z,36.92
2019-03-21T08:45:37.943Z,36.88
2019-03-21T08:48:08.697Z,37.88
2019-03-21T08:50:39.348Z,37.33
2019-03-21T08:53:10.205Z,36.49
2019-03-21T08:55:40.957Z,36.92
2019-03-21T08:58:11.714Z,36.40
2019-03-21T09:00:42.363Z,36.87
2019-03-21T09:03:12.897Z,36.30
2019-03-21T09:05:44.670Z,36.58
2019-03-21T09:08:15.531Z,36.86
2019-03-21T09:10:46.181Z,36.14
2019-03-21T09:13:16.935Z,34.97
2019-03-21T09:15:47.808Z,35.02
2019-03-21T09:18:18.663Z,35.67
2019-03-21T09:20:49.416Z,34.73
2019-03-21T09:23:20.052Z,33.56
2019-03-21T09:25:51.403Z,33.09
2019-03-21T09:28:22.189Z,32.27
2019-03-21T09:30:53.048Z,32.27
2019-03-21T09:33:24.003Z,32.16
2019-03-21T09:35:54.656Z,32.65
2019-03-21T09:38:25.492Z,32.15
2019-03-21T09:40:56.249Z,30.62
2019-03-21T09:43:27.021Z,31.09
2019-03-21T09:45:57.674Z,31.53
2019-03-21T09:48:28.510Z,30.90
2019-03-21T09:50:59.280Z,32.23
2019-03-21T09:53:30.035Z,32.12
2019-03-21T09:56:01.297Z,32.14
2019-03-21T09:58:32.258Z,31.78
2019-03-21T10:01:02.793Z,31.53
2019-03-21T10:03:33.665Z,31.60
2019-03-21T10:06:05.344Z,31.70
2019-03-21T10:08:36.196Z,32.04
2019-03-21T10:11:06.950Z,31.68
2019-03-21T10:13:37.608Z,32.24
2019-03-21T10:16:08.457Z,31.78
2019-03-21T10:18:39.192Z,31.72
2019-03-21T10:21:09.965Z,31.14
2019-03-21T10:23:40.598Z,31.08
2019-03-21T10:26:11.371Z,31.04
2019-03-21T10:28:42.123Z,30.88
2019-03-21T10:31:12.876Z,31.47
2019-03-21T10:33:43.633Z,32.28
2019-03-21T10:36:16.067Z,32.72
2019-03-21T10:38:46.881Z,32.13
2019-03-21T10:41:17.532Z,31.12
2019-03-21T10:43:48.386Z,31.47
2019-03-21T10:46:19.122Z,31.67
2019-03-21T10:48:49.894Z,31.66
2019-03-21T10:51:20.528Z,32.17
2019-03-21T10:53:51.401Z,30.00
2019-03-21T10:56:22.155Z,30.76
2019-03-21T10:58:52.911Z,30.85
2019-03-21T11:01:23.539Z,31.48
2019-03-21T11:03:54.416Z,31.48
2019-03-21T11:06:26.091Z,31.46
2019-03-21T11:08:56.946Z,31.85
2019-03-21T11:11:27.702Z,31.86
2019-03-21T11:13:58.338Z,31.21
2019-03-21T11:16:31.400Z,31.97
2019-03-21T11:19:01.600Z,31.08
2019-03-21T11:21:32.352Z,30.66
2019-03-21T11:24:03.211Z,30.02
2019-03-21T11:26:33.943Z,31.14
2019-03-21T11:29:04.717Z,31.28
2019-03-21T11:31:35.370Z,31.74
2019-03-21T11:34:06.309Z,32.06
2019-03-21T11:36:38.647Z,31.81
2019-03-21T11:39:09.370Z,31.92
2019-03-21T11:41:40.026Z,32.44
2019-03-21T11:44:10.883Z,32.43
2019-03-21T11:46:41.631Z,32.56
2019-03-21T11:49:13.002Z,33.80
2019-03-21T11:51:43.765Z,34.32
2019-03-21T11:54:14.489Z,34.08
2019-03-21T11:56:45.051Z,34.52
2019-03-21T11:59:15.893Z,35.32
2019-03-21T12:01:48.199Z,34.87
2019-03-21T12:04:18.952Z,34.77
2019-03-21T12:06:50.523Z,33.88
2019-03-21T12:09:20.977Z,33.46
2019-03-21T12:11:51.606Z,32.55
2019-03-21T12:14:22.479Z,32.21
2019-03-21T12:16:53.336Z,32.75
2019-03-21T12:19:24.091Z,33.12
2019-03-21T12:21:54.622Z,33.72
2019-03-21T12:24:25.484Z,33.72
2019-03-21T12:26:56.250Z,33.92
2019-03-21T12:29:26.985Z,33.98
2019-03-21T12:31:57.346Z,33.76
2019-03-21T12:34:28.113Z,33.59
2019-03-21T12:36:58.841Z,34.07
2019-03-21T12:39:29.610Z,33.90
2019-03-21T12:42:00.364Z,33.56
2019-03-21T12:44:31.221Z,33.93
2019-03-21T12:47:02.078Z,34.19
2019-03-21T12:49:32.816Z,33.20
2019-03-21T12:52:03.483Z,32.85
2019-03-21T12:54:34.338Z,32.61
2019-03-21T12:57:04.970Z,32.77
2019-03-21T12:59:35.742Z,33.31
2019-03-21T13:02:06.397Z,33.96
2019-03-21T13:04:37.250Z,33.75
2019-03-21T13:07:09.029Z,33.74
2019-03-21T13:09:39.883Z,34.06
2019-03-21T13:12:10.520Z,33.54
2019-03-21T13:14:40.699Z,34.42
2019-03-21T13:17:11.224Z,33.34
2019-03-21T13:19:41.877Z,32.54
2019-03-21T13:22:12.615Z,33.41
2019-03-21T13:24:43.471Z,33.48
2019-03-21T13:27:14.736Z,33.72
2019-03-21T13:29:45.303Z,34.03
2019-03-21T13:32:16.054Z,34.18
2019-03-21T13:34:46.913Z,34.28
2019-03-21T13:37:17.769Z,34.33
2019-03-21T13:39:48.624Z,34.70
2019-03-21T13:42:19.378Z,34.51
2019-03-21T13:44:50.227Z,34.93
2019-03-21T13:47:20.987Z,35.43
2019-03-21T13:49:51.746Z,34.97
2019-03-21T13:52:22.598Z,34.46
2019-03-21T13:54:53.352Z,33.67
2019-03-21T13:57:24.108Z,32.97
2019-03-21T13:59:54.746Z,32.47
2019-03-21T14:02:25.493Z,32.40
2019-03-21T14:04:56.268Z,32.99
2019-03-21T14:07:27.921Z,33.70
2019-03-21T14:09:58.673Z,34.27
2019-03-21T14:12:29.223Z,34.72
2019-03-21T14:14:59.192Z,35.38
2019-03-21T14:17:29.715Z,35.83
2019-03-21T14:20:00.380Z,36.30
2019-03-21T14:22:31.115Z,36.19
2019-03-21T14:25:01.976Z,36.48
2019-03-21T14:27:32.744Z,36.19
2019-03-21T14:30:04.196Z,36.25
2019-03-21T14:32:34.556Z,36.90
2019-03-21T14:35:07.645Z,36.74
2019-03-21T14:37:38.011Z,36.79
2019-03-21T14:40:13.859Z,37.32
2019-03-21T14:42:44.294Z,37.31
2019-03-21T14:45:17.633Z,37.78
2019-03-21T14:47:48.069Z,38.09
2019-03-21T14:50:18.733Z,38.20
2019-03-21T14:52:49.593Z,38.71
2019-03-21T14:55:20.445Z,38.83
2019-03-21T14:57:51.198Z,39.01
2019-03-21T15:00:21.743Z,39.12
2019-03-21T15:02:52.604Z,39.79
2019-03-21T15:05:23.358Z,39.91
2019-03-21T15:07:55.032Z,39.92
2019-03-21T15:10:25.769Z,40.12
2019-03-21T15:12:56.440Z,40.49
2019-03-21T15:15:27.092Z,40.52
2019-03-21T15:17:58.787Z,40.39
2019-03-21T15:20:29.518Z,40.52
2019-03-21T15:23:00.382Z,40.68
2019-03-21T15:25:31.163Z,41.00
2019-03-21T15:28:01.984Z,40.81
2019-03-21T15:30:32.822Z,40.72
2019-03-21T15:33:03.598Z,40.47
2019-03-21T15:35:34.350Z,40.07
2019-03-21T15:38:05.102Z,39.69
2019-03-21T15:40:35.839Z,39.00
2019-03-21T15:43:06.609Z,39.14
2019-03-21T15:45:37.715Z,39.04
2019-03-21T15:48:08.430Z,39.22
2019-03-21T15:50:38.737Z,39.18
2019-03-21T15:53:08.593Z,39.17
2019-03-21T15:55:38.862Z,39.51
2019-03-21T15:58:08.665Z,39.72
2019-03-21T16:00:52.540Z,39.75
2019-03-21T16:06:46.679Z,40.37
2019-03-21T16:09:18.072Z,40.42
2019-03-21T16:11:48.526Z,40.76
2019-03-21T16:14:20.705Z,41.12
2019-03-21T16:16:51.210Z,41.15
2019-03-21T16:19:22.213Z,41.25
2019-03-21T16:21:52.972Z,41.41
2019-03-21T16:24:23.717Z,41.65
2019-03-21T16:26:54.352Z,41.93
2019-03-21T16:29:25.234Z,42.15
2019-03-21T16:31:56.083Z,42.30
2019-03-21T16:34:26.732Z,42.55
2019-03-21T16:36:57.589Z,42.93
2019-03-21T16:39:28.454Z,42.72
2019-03-21T16:42:02.364Z,43.00
2019-03-21T16:44:33.040Z,43.25
2019-03-21T16:47:05.400Z,43.37
2019-03-21T16:49:35.842Z,43.67
2019-03-21T16:52:07.229Z,43.80
2019-03-21T16:54:37.778Z,44.21
2019-03-21T16:57:08.616Z,44.61
2019-03-21T16:59:40.953Z,44.79
2019-03-21T17:02:12.698Z,45.06
2019-03-21T17:04:43.307Z,45.36
2019-03-21T17:07:13.193Z,45.71
2019-03-21T17:09:44.331Z,45.87
2019-03-21T17:12:15.065Z,45.99
2019-03-21T17:14:47.931Z,46.03
2019-03-21T17:17:20.062Z,46.25
2019-03-21T17:19:50.462Z,46.31
2019-03-21T17:22:22.761Z,46.64
2019-03-21T17:24:53.137Z,46.82
2019-03-21T17:27:24.978Z,46.82
2019-03-21T17:29:55.313Z,47.81
2019-03-21T17:32:25.691Z,47.99
2019-03-21T17:34:56.255Z,48.21
2019-03-21T17:37:25.989Z,48.74
2019-03-21T17:39:56.088Z,48.97
2019-03-21T17:42:26.456Z,49.14
2019-03-21T17:44:56.725Z,49.18
2019-03-21T17:47:27.070Z,49.30
2019-03-21T17:49:56.954Z,51.31
2019-03-21T17:52:27.089Z,52.04
2019-03-21T17:54:57.414Z,52.35
2019-03-21T17:57:34.383Z,51.14
2019-03-21T17:59:59.121Z,50.91
2019-03-21T18:02:29.486Z,50.76
2019-03-21T18:04:59.816Z,50.50
2019-03-21T18:07:30.171Z,50.17
2019-03-21T18:10:01.799Z,50.43
2019-03-21T18:12:32.274Z,50.37
2019-03-21T18:15:03.230Z,50.23
2019-03-21T18:17:33.864Z,49.89
2019-03-21T18:20:06.216Z,50.05
2019-03-21T18:22:36.824Z,50.26
2019-03-21T18:25:07.764Z,50.65
2019-03-21T18:27:38.147Z,50.44
2019-03-21T18:30:08.672Z,50.41
2019-03-21T18:32:39.408Z,50.68
2019-03-21T18:35:10.081Z,50.86
2019-03-21T18:37:42.973Z,51.14
2019-03-21T18:40:13.735Z,51.57
2019-03-21T18:42:44.469Z,51.54
2019-03-21T18:45:16.640Z,51.97
2019-03-21T18:47:47.636Z,52.37
2019-03-21T18:50:18.804Z,52.65
2019-03-21T18:52:50.625Z,53.51
2019-03-21T18:55:21.513Z,53.90
2019-03-21T18:57:52.838Z,54.36
2019-03-21T19:00:23.571Z,54.44
2019-03-21T19:02:54.385Z,54.75
2019-03-21T19:05:25.264Z,54.55
2019-03-21T19:07:54.968Z,54.76
2019-03-21T19:10:25.201Z,54.70
2019-03-21T19:12:55.500Z,54.86
2019-03-21T19:15:25.915Z,54.95
2019-03-21T19:17:56.429Z,55.06
2019-03-21T19:20:27.110Z,55.18
2019-03-21T19:22:59.662Z,55.25
2019-03-21T19:25:30.164Z,55.21
2019-03-21T19:28:01.007Z,55.09
2019-03-21T19:30:31.776Z,54.81
2019-03-21T19:33:02.429Z,54.07
2019-03-21T19:35:33.287Z,54.29
2019-03-21T19:38:04.149Z,53.90
2019-03-21T19:40:35.200Z,53.77
2019-03-21T19:43:05.835Z,53.05
2019-03-21T19:45:36.383Z,53.29
2019-03-21T19:48:07.245Z,53.25
2019-03-21T19:50:38.010Z,53.23
2019-03-21T19:53:07.860Z,53.18
2019-03-21T19:55:38.496Z,53.22
2019-03-21T19:58:09.132Z,53.33
2019-03-21T20:00:40.005Z,53.20
2019-03-21T20:03:10.738Z,53.28
2019-03-21T20:05:40.709Z,53.24
2019-03-21T20:08:11.243Z,53.24
2019-03-21T20:10:42.114Z,53.57
2019-03-21T20:13:12.343Z,53.51
2019-03-21T20:15:43.096Z,53.74
2019-03-21T20:18:13.736Z,53.66
2019-03-21T20:20:44.603Z,54.19
2019-03-21T20:23:15.360Z,54.20
2019-03-21T20:25:45.993Z,54.09
2019-03-21T20:28:16.070Z,54.11
2019-03-21T20:30:46.598Z,54.34
2019-03-21T20:33:17.247Z,54.43
2019-03-21T20:35:47.882Z,54.48
2019-03-21T20:38:18.862Z,54.69
2019-03-21T20:40:49.615Z,54.39
2019-03-21T20:43:20.262Z,54.22
2019-03-21T20:45:51.103Z,54.17
2019-03-21T20:48:31.065Z,54.06
2019-03-21T20:51:01.626Z,53.96
2019-03-21T20:53:31.485Z,54.08
2019-03-21T20:56:02.009Z,54.55
2019-03-21T20:58:32.763Z,55.18
2019-03-21T21:01:04.114Z,55.72
2019-03-21T21:03:34.663Z,56.20
2019-03-21T21:06:05.640Z,56.67
2019-03-21T21:08:36.273Z,57.04
2019-03-21T21:11:07.480Z,57.67
2019-03-21T21:13:36.995Z,58.08
2019-03-21T21:16:07.429Z,58.05
2019-03-21T21:18:38.283Z,58.42
2019-03-21T21:21:09.021Z,58.71
2019-03-21T21:23:39.772Z,59.17
2019-03-21T21:26:10.443Z,59.39
2019-03-21T21:28:41.311Z,59.46
2019-03-21T21:31:12.679Z,59.51
2019-03-21T21:33:43.430Z,59.52
2019-03-21T21:36:21.977Z,59.75
2019-03-21T21:38:46.445Z,59.99
2019-03-21T21:41:17.112Z,60.25
2019-03-21T21:43:47.968Z,59.99
2019-03-21T21:46:18.827Z,59.83
2019-03-21T21:48:49.579Z,60.11
2019-03-21T21:51:20.231Z,60.72
2019-03-21T21:53:51.087Z,61.16
2019-03-21T21:56:21.949Z,61.94
2019-03-21T21:58:52.783Z,63.52
2019-03-21T22:01:23.655Z,64.25
2019-03-21T22:04:04.127Z,64.57
2019-03-21T22:06:26.495Z,64.96
2019-03-21T22:08:57.348Z,65.21
2019-03-21T22:11:29.024Z,64.86
2019-03-21T22:13:59.760Z,65.36
2019-03-21T22:16:30.534Z,66.06
2019-03-21T22:19:01.163Z,66.42
2019-03-21T22:21:31.835Z,66.34
2019-03-21T22:24:02.673Z,66.35
2019-03-21T22:26:33.545Z,66.41
2019-03-21T22:29:04.300Z,66.17
2019-03-21T22:31:34.933Z,66.06
2019-03-21T22:34:05.791Z,65.89
2019-03-21T22:36:48.621Z,65.71
2019-03-21T22:39:08.954Z,65.17
2019-03-21T22:41:39.809Z,66.35
2019-03-21T22:44:10.560Z,67.27
2019-03-21T22:46:41.195Z,68.55
2019-03-21T22:49:11.275Z,67.29
2019-03-21T22:51:41.680Z,66.23
2019-03-21T22:54:12.452Z,64.90
2019-03-21T22:56:43.103Z,64.14
2019-03-21T22:59:13.964Z,64.03
2019-03-21T23:01:44.595Z,64.15
2019-03-21T23:04:15.060Z,63.85
2019-03-21T23:06:45.693Z,64.00
2019-03-21T23:09:15.660Z,64.52
2019-03-21T23:11:47.116Z,65.10
2019-03-21T23:14:17.874Z,65.42
2019-03-21T23:16:48.505Z,65.67
2019-03-21T23:19:18.470Z,65.78
2019-03-21T23:21:49.500Z,65.80
2019-03-21T23:24:20.255Z,65.99
2019-03-21T23:26:53.065Z,66.00
2019-03-21T23:29:23.206Z,66.14
2019-03-21T23:31:53.161Z,66.30
2019-03-21T23:34:23.697Z,66.02
2019-03-21T23:36:54.433Z,65.96
2019-03-21T23:39:25.426Z,65.58
2019-03-21T23:41:56.261Z,66.51
2019-03-21T23:44:26.897Z,66.47
2019-03-21T23:46:56.977Z,66.78
2019-03-21T23:49:27.486Z,66.88
2019-03-21T23:51:58.150Z,66.82
2019-03-21T23:54:28.891Z,66.96
2019-03-21T23:57:04.457Z,67.36
2019-03-21T23:59:31.849Z,68.13
